Time;durP1;ratioP1;P1;durP2;ratioP2;P2;SDS_P1;SDS_P2;PMS_P1;PMS_P2;Temp;Humidity;BMP_temperature;BMP_pressure;BME280_temperature;BME280_humidity;BME280_pressure;Samples;Min_cycle;Max_cycle;Signal;HPM_P1;HPM_P2
2023/05/31 00:00:40;;;;;;;0.20;0.20;;;;;;;12.26;62.40;98186.50;5022723;28;20075;-73
2023/05/31 00:03:07;;;;;;;0.17;0.17;;;;;;;12.14;62.86;98178.19;5031906;28;20034;-73
2023/05/31 00:05:35;;;;;;;0.25;0.25;;;;;;;12.07;62.92;98180.75;5024924;28;20065;-73
2023/05/31 00:08:03;;;;;;;0.20;0.20;;;;;;;12.08;62.74;98185.09;5025999;28;20065;-73
2023/05/31 00:10:32;;;;;;;0.17;0.17;;;;;;;11.88;63.19;98176.03;5029229;28;20040;-74
2023/05/31 00:12:59;;;;;;;0.22;0.22;;;;;;;11.81;63.47;98183.16;5005321;28;20501;-73
2023/05/31 00:15:27;;;;;;;0.10;0.10;;;;;;;11.71;63.50;98183.41;5026012;28;20060;-73
2023/05/31 00:17:54;;;;;;;0.20;0.20;;;;;;;11.54;63.92;98183.78;5025221;28;20146;-73
2023/05/31 00:20:22;;;;;;;0.20;0.20;;;;;;;11.45;64.16;98180.41;5024045;28;20129;-73
2023/05/31 00:22:50;;;;;;;0.10;0.10;;;;;;;11.43;64.10;98184.25;5030298;28;20397;-73
2023/05/31 00:25:17;;;;;;;0.10;0.10;;;;;;;11.36;64.47;98176.16;5026137;28;20143;-73
2023/05/31 00:27:46;;;;;;;0.20;0.20;;;;;;;11.49;63.54;98175.50;5031059;28;20045;-73
2023/05/31 00:30:14;;;;;;;0.30;0.30;;;;;;;11.21;64.56;98172.69;5031615;28;20506;-73
2023/05/31 00:32:42;;;;;;;0.15;0.15;;;;;;;11.13;64.67;98170.91;5022997;28;20047;-73
2023/05/31 00:35:10;;;;;;;0.25;0.25;;;;;;;11.26;63.81;98179.13;5018218;28;20080;-73
2023/05/31 00:37:38;;;;;;;0.32;0.32;;;;;;;10.93;65.51;98177.81;5008150;28;20077;-74
2023/05/31 00:40:06;;;;;;;0.25;0.25;;;;;;;10.82;65.93;98186.25;5028982;28;20048;-73
2023/05/31 00:42:34;;;;;;;0.10;0.10;;;;;;;10.87;66.01;98182.03;5024793;28;20111;-73
2023/05/31 00:45:03;;;;;;;0.13;0.13;;;;;;;10.96;65.65;98186.28;5011428;28;20068;-74
2023/05/31 00:47:31;;;;;;;0.20;0.20;;;;;;;10.95;65.53;98187.28;5021389;28;20048;-73
2023/05/31 00:49:59;;;;;;;0.25;0.25;;;;;;;10.95;65.33;98186.47;5013375;28;20053;-74
2023/05/31 00:52:28;;;;;;;0.20;0.20;;;;;;;10.95;65.31;98187.28;5015374;28;20454;-74
2023/05/31 00:54:56;;;;;;;0.10;0.10;;;;;;;10.95;65.19;98183.78;5013426;28;20594;-73
2023/05/31 00:57:24;;;;;;;0.20;0.20;;;;;;;10.99;64.70;98180.59;5034643;28;20046;-73
2023/05/31 00:59:51;;;;;;;0.20;0.20;;;;;;;10.85;65.47;98186.72;5011500;28;20073;-73
2023/05/31 01:02:22;;;;;;;0.20;0.20;;;;;;;10.78;65.71;98187.66;5025185;28;20385;-73
2023/05/31 01:04:50;;;;;;;0.20;0.20;;;;;;;10.78;65.37;98192.97;5028059;28;20504;-73
2023/05/31 01:07:18;;;;;;;0.10;0.10;;;;;;;10.57;65.95;98178.47;5029400;28;20523;-73
2023/05/31 01:09:45;;;;;;;0.20;0.20;;;;;;;10.39;66.67;98183.28;5011557;28;20128;-73
2023/05/31 01:12:17;;;;;;;0.20;0.20;;;;;;;10.27;67.46;98187.41;5011150;28;20051;-73
2023/05/31 01:14:56;;;;;;;0.45;0.20;;;;;;;10.35;66.97;98184.66;5017181;28;20057;-73
2023/05/31 01:17:31;;;;;;;0.20;0.20;;;;;;;10.58;65.84;98187.31;5012134;28;20483;-73
2023/05/31 01:20:01;;;;;;;0.35;0.35;;;;;;;10.53;66.49;98184.34;5022841;28;20044;-73
2023/05/31 01:22:37;;;;;;;0.20;0.20;;;;;;;10.46;66.68;98192.25;5019853;28;20038;-73
2023/05/31 01:25:15;;;;;;;0.30;0.30;;;;;;;10.39;66.87;98185.94;5027866;28;20120;-73
2023/05/31 01:27:44;;;;;;;0.20;0.20;;;;;;;10.26;67.32;98186.56;5010304;28;20041;-73
2023/05/31 01:30:12;;;;;;;0.22;0.22;;;;;;;10.33;66.89;98186.69;5030831;28;20042;-73
2023/05/31 01:32:41;;;;;;;0.20;0.20;;;;;;;10.25;67.20;98189.41;5007125;28;20052;-73
2023/05/31 01:35:09;;;;;;;0.20;0.20;;;;;;;10.27;67.06;98196.25;5008548;28;20042;-73
2023/05/31 01:37:37;;;;;;;0.20;0.20;;;;;;;10.32;66.88;98195.69;5031400;28;20051;-73
2023/05/31 01:40:06;;;;;;;0.20;0.20;;;;;;;10.41;66.36;98191.13;5012686;28;20052;-73
2023/05/31 01:42:34;;;;;;;0.20;0.20;;;;;;;10.40;66.31;98192.94;5008469;28;20140;-73
2023/05/31 01:45:04;;;;;;;0.20;0.20;;;;;;;10.36;66.39;98186.34;5030435;28;20485;-74
2023/05/31 01:47:32;;;;;;;0.20;0.20;;;;;;;10.34;66.48;98187.50;5003992;28;20050;-73
2023/05/31 01:50:00;;;;;;;0.20;0.20;;;;;;;10.30;66.38;98187.84;5033058;28;20041;-74
2023/05/31 01:52:28;;;;;;;0.43;0.20;;;;;;;10.21;66.58;98186.25;5024683;28;20497;-74
2023/05/31 01:54:56;;;;;;;0.17;0.17;;;;;;;10.06;67.26;98187.19;5017166;28;20038;-73
2023/05/31 01:57:24;;;;;;;0.20;0.20;;;;;;;9.97;67.46;98186.38;5013183;28;20065;-74
2023/05/31 01:59:52;;;;;;;0.15;0.15;;;;;;;10.00;67.46;98188.69;5016499;28;20056;-73
2023/05/31 02:02:21;;;;;;;0.20;0.20;;;;;;;9.91;67.53;98195.09;5016069;28;20541;-73
2023/05/31 02:04:49;;;;;;;0.20;0.20;;;;;;;9.97;67.16;98196.25;5006235;28;20064;-73
2023/05/31 02:07:16;;;;;;;0.10;0.10;;;;;;;9.97;67.32;98199.72;5015123;28;20525;-73
2023/05/31 02:09:44;;;;;;;0.15;0.15;;;;;;;10.12;66.28;98199.78;5026965;28;20038;-73
2023/05/31 02:12:12;;;;;;;0.20;0.20;;;;;;;9.90;67.19;98196.94;5007988;28;20068;-73
2023/05/31 02:14:40;;;;;;;0.30;0.30;;;;;;;9.79;67.35;98194.66;5017586;28;20088;-73
2023/05/31 02:17:07;;;;;;;0.20;0.20;;;;;;;9.75;67.85;98196.03;5037930;28;20132;-74
2023/05/31 02:19:37;;;;;;;0.20;0.20;;;;;;;9.63;68.13;98192.09;5029393;28;20048;-73
2023/05/31 02:22:04;;;;;;;0.20;0.20;;;;;;;9.57;68.21;98190.09;5015878;28;20050;-73
2023/05/31 02:24:34;;;;;;;0.20;0.20;;;;;;;9.54;68.51;98195.78;5032164;28;20033;-73
2023/05/31 02:27:02;;;;;;;0.10;0.10;;;;;;;9.51;68.47;98190.81;5034257;28;20105;-73
2023/05/31 02:29:29;;;;;;;0.20;0.20;;;;;;;9.49;68.46;98201.63;5045688;28;20033;-72
2023/05/31 02:31:57;;;;;;;0.30;0.30;;;;;;;9.42;68.55;98194.50;5017719;28;20056;-73
2023/05/31 02:34:26;;;;;;;0.20;0.20;;;;;;;9.42;68.32;98197.16;5031351;28;20047;-73
2023/05/31 02:36:55;;;;;;;0.35;0.35;;;;;;;9.35;68.66;98196.16;5029500;28;20041;-73
2023/05/31 02:39:23;;;;;;;0.20;0.20;;;;;;;9.24;69.07;98196.56;5021063;28;20042;-73
2023/05/31 02:41:50;;;;;;;0.28;0.28;;;;;;;9.30;69.12;98194.03;5026971;28;20520;-73
2023/05/31 02:44:18;;;;;;;0.30;0.30;;;;;;;9.09;70.06;98199.09;5022251;28;20050;-73
2023/05/31 02:46:45;;;;;;;0.32;0.32;;;;;;;9.34;69.23;98194.53;5014180;28;20057;-74
2023/05/31 02:49:13;;;;;;;0.13;0.13;;;;;;;9.41;68.52;98199.00;5030933;28;20397;-75
2023/05/31 02:51:41;;;;;;;0.20;0.20;;;;;;;9.39;68.74;98192.16;5010275;28;20515;-74
2023/05/31 02:54:28;;;;;;;0.20;0.20;;;;;;;9.26;68.99;98192.72;5029043;28;20519;-74
2023/05/31 02:56:56;;;;;;;0.20;0.20;;;;;;;9.24;68.94;98200.03;5013993;28;20126;-74
2023/05/31 02:59:26;;;;;;;0.30;0.30;;;;;;;9.19;68.84;98194.41;5013892;28;20524;-74
2023/05/31 03:02:04;;;;;;;0.20;0.20;;;;;;;9.12;68.97;98199.59;5007421;28;20053;-74
2023/05/31 03:04:47;;;;;;;0.22;0.20;;;;;;;9.16;68.79;98198.22;5010260;28;20041;-74
2023/05/31 03:07:16;;;;;;;0.10;0.10;;;;;;;9.18;68.87;98204.22;5006053;28;20046;-74
2023/05/31 03:09:45;;;;;;;0.25;0.25;;;;;;;9.23;68.62;98197.56;5011591;28;20419;-73
2023/05/31 03:12:13;;;;;;;0.20;0.20;;;;;;;9.19;68.64;98197.06;5006296;28;20436;-73
2023/05/31 03:14:42;;;;;;;0.20;0.20;;;;;;;8.93;69.71;98199.16;5009466;28;20052;-74
2023/05/31 03:17:10;;;;;;;0.25;0.25;;;;;;;9.02;69.16;98206.09;5013192;28;20095;-74
2023/05/31 03:19:38;;;;;;;0.25;0.25;;;;;;;9.00;68.99;98208.94;5010195;28;20049;-74
2023/05/31 03:22:06;;;;;;;0.10;0.10;;;;;;;8.94;69.50;98211.44;5012676;28;20054;-74
2023/05/31 03:24:33;;;;;;;0.20;0.20;;;;;;;8.95;69.31;98208.59;5008985;28;20133;-74
2023/05/31 03:27:03;;;;;;;0.32;0.20;;;;;;;9.00;68.79;98203.63;5011874;28;20049;-74
2023/05/31 03:29:30;;;;;;;0.20;0.20;;;;;;;9.02;69.08;98208.78;5024899;28;20037;-74
2023/05/31 03:32:00;;;;;;;0.10;0.10;;;;;;;9.05;68.64;98203.91;5011125;28;20045;-74
2023/05/31 03:34:28;;;;;;;0.20;0.20;;;;;;;9.07;68.76;98209.06;5008731;28;20046;-74
2023/05/31 03:36:56;;;;;;;0.10;0.10;;;;;;;9.04;68.59;98202.25;5011909;28;20536;-74
2023/05/31 03:39:43;;;;;;;0.20;0.20;;;;;;;8.75;69.46;98204.63;5006298;28;20064;-74
2023/05/31 03:42:22;;;;;;;0.10;0.10;;;;;;;8.83;69.41;98202.78;5023871;28;20057;-74
2023/05/31 03:44:51;;;;;;;0.30;0.30;;;;;;;8.77;69.70;98207.97;5006353;28;20087;-74
2023/05/31 03:47:18;;;;;;;0.20;0.20;;;;;;;8.84;69.37;98196.47;5010056;28;20443;-74
2023/05/31 03:49:46;;;;;;;0.30;0.30;;;;;;;8.78;69.37;98205.13;5025451;28;20440;-73
2023/05/31 03:52:14;;;;;;;0.20;0.20;;;;;;;8.70;69.61;98209.66;5012879;28;20404;-74
2023/05/31 03:54:42;;;;;;;0.20;0.20;;;;;;;8.69;69.44;98214.13;5013703;28;20049;-74
2023/05/31 03:57:10;;;;;;;0.20;0.20;;;;;;;8.68;69.48;98212.47;5013706;28;20037;-74
2023/05/31 03:59:39;;;;;;;0.20;0.20;;;;;;;8.73;69.18;98220.75;5016851;28;20052;-73
2023/05/31 04:02:06;;;;;;;0.20;0.20;;;;;;;8.69;69.51;98216.78;5027206;28;20159;-74
2023/05/31 04:04:35;;;;;;;0.20;0.20;;;;;;;8.65;69.66;98210.13;5011391;28;20041;-73
2023/05/31 04:07:04;;;;;;;0.20;0.20;;;;;;;8.62;70.13;98221.09;5027565;28;20096;-73
2023/05/31 04:09:31;;;;;;;0.22;0.22;;;;;;;8.69;70.04;98213.31;5009538;28;20045;-74
2023/05/31 04:11:59;;;;;;;0.10;0.10;;;;;;;8.84;69.56;98207.13;5009677;28;20474;-74
2023/05/31 04:14:26;;;;;;;0.30;0.10;;;;;;;8.97;69.00;98211.09;5006643;28;20037;-74
2023/05/31 04:16:56;;;;;;;0.20;0.20;;;;;;;8.82;69.12;98209.09;5013007;28;20045;-74
2023/05/31 04:19:24;;;;;;;0.20;0.20;;;;;;;8.83;69.69;98207.28;5010611;28;20432;-74
2023/05/31 04:21:52;;;;;;;0.13;0.13;;;;;;;8.89;69.41;98214.59;4999524;28;20088;-74
2023/05/31 04:24:20;;;;;;;0.20;0.20;;;;;;;8.80;70.18;98203.16;5005438;28;20139;-74
2023/05/31 04:26:47;;;;;;;0.20;0.20;;;;;;;8.73;70.22;98198.66;5010865;28;20041;-74
2023/05/31 04:29:17;;;;;;;0.10;0.10;;;;;;;8.72;70.64;98212.97;5007699;28;20103;-74
2023/05/31 04:31:46;;;;;;;0.20;0.20;;;;;;;8.96;69.83;98207.59;5008160;28;20099;-74
2023/05/31 04:34:21;;;;;;;0.30;0.30;;;;;;;9.01;69.67;98209.78;5011541;28;20056;-74
2023/05/31 04:36:52;;;;;;;0.20;0.20;;;;;;;9.15;69.24;98211.72;5008685;28;20045;-74
2023/05/31 04:39:22;;;;;;;0.20;0.20;;;;;;;9.13;69.17;98214.56;5012470;28;20479;-74
2023/05/31 04:41:53;;;;;;;0.30;0.30;;;;;;;9.14;69.12;98216.22;5007476;28;20053;-74
2023/05/31 04:44:21;;;;;;;0.20;0.20;;;;;;;9.13;69.28;98213.75;5020575;28;20443;-74
2023/05/31 04:46:50;;;;;;;0.20;0.20;;;;;;;9.22;68.96;98222.53;5010016;28;20120;-74
2023/05/31 04:49:18;;;;;;;0.10;0.10;;;;;;;9.17;69.29;98226.53;5011595;28;20041;-74
2023/05/31 04:51:47;;;;;;;0.20;0.20;;;;;;;9.18;69.01;98227.38;5013700;28;20141;-74
2023/05/31 04:54:15;;;;;;;0.22;0.22;;;;;;;9.22;69.12;98228.69;5010358;28;20115;-74
2023/05/31 04:56:43;;;;;;;0.10;0.10;;;;;;;9.24;69.33;98228.53;5007310;28;20037;-74
2023/05/31 04:59:12;;;;;;;0.20;0.20;;;;;;;9.30;69.34;98220.69;5016060;28;20045;-74
2023/05/31 05:01:40;;;;;;;0.20;0.20;;;;;;;9.40;69.25;98223.97;5014526;28;20099;-74
2023/05/31 05:04:13;;;;;;;0.20;0.20;;;;;;;9.50;68.92;98221.94;5006243;28;20048;-73
2023/05/31 05:06:41;;;;;;;0.20;0.20;;;;;;;9.64;68.72;98225.72;5012076;28;20496;-74
2023/05/31 05:09:10;;;;;;;0.20;0.20;;;;;;;9.67;68.67;98230.69;5015995;28;20049;-74
2023/05/31 05:11:39;;;;;;;0.20;0.20;;;;;;;9.73;68.48;98221.19;5007937;28;20513;-73
2023/05/31 05:14:08;;;;;;;0.20;0.20;;;;;;;9.83;68.41;98227.97;5014518;28;20053;-74
2023/05/31 05:16:35;;;;;;;0.17;0.17;;;;;;;9.95;67.83;98231.06;5027340;28;20436;-73
2023/05/31 05:19:04;;;;;;;0.20;0.20;;;;;;;10.02;67.55;98231.19;5006013;28;20584;-73
2023/05/31 05:21:33;;;;;;;0.15;0.15;;;;;;;10.06;67.15;98233.34;5013733;28;20451;-73
2023/05/31 05:24:01;;;;;;;0.20;0.20;;;;;;;10.13;67.35;98238.81;5005628;28;20056;-73
2023/05/31 05:26:30;;;;;;;0.30;0.30;;;;;;;10.23;67.15;98242.09;5015739;28;20409;-74
2023/05/31 05:28:58;;;;;;;0.17;0.17;;;;;;;10.42;66.91;98238.13;5007056;28;20057;-74
2023/05/31 05:31:26;;;;;;;0.20;0.20;;;;;;;10.50;66.88;98230.91;5030852;28;20049;-74
2023/05/31 05:33:56;;;;;;;0.30;0.30;;;;;;;10.54;66.36;98237.56;5012834;28;20041;-73
2023/05/31 05:36:23;;;;;;;0.20;0.20;;;;;;;10.65;66.37;98231.78;5015884;28;20165;-74
2023/05/31 05:38:55;;;;;;;0.28;0.28;;;;;;;10.69;65.99;98236.78;5016609;28;20053;-74
2023/05/31 05:41:23;;;;;;;0.28;0.28;;;;;;;10.87;66.44;98237.28;5013660;28;20107;-74
2023/05/31 05:43:52;;;;;;;0.22;0.20;;;;;;;10.95;65.96;98237.22;5031625;28;20077;-74
2023/05/31 05:46:19;;;;;;;0.20;0.20;;;;;;;11.09;65.33;98236.41;5012896;28;20084;-73
2023/05/31 05:48:47;;;;;;;0.20;0.20;;;;;;;11.12;65.10;98244.03;5013643;28;20072;-73
2023/05/31 05:51:16;;;;;;;0.10;0.10;;;;;;;11.19;64.91;98238.81;5013841;28;20049;-74
2023/05/31 05:53:44;;;;;;;0.22;0.20;;;;;;;11.29;64.72;98242.91;5012993;28;20080;-73
2023/05/31 05:56:17;;;;;;;0.25;0.25;;;;;;;11.46;64.60;98243.53;5008484;28;20056;-74
2023/05/31 05:58:53;;;;;;;0.20;0.20;;;;;;;11.60;63.74;98237.38;5013720;28;20045;-73
2023/05/31 06:01:48;;;;;;;;;;;;;;;11.76;63.45;98236.34;5005581;28;20119;-74
2023/05/31 06:04:18;;;;;;;0.28;0.28;;;;;;;11.93;63.34;98234.31;5010804;28;19928;-73
2023/05/31 06:06:45;;;;;;;0.30;0.30;;;;;;;12.00;62.82;98230.72;5007334;28;20124;-74
2023/05/31 06:09:16;;;;;;;0.20;0.20;;;;;;;12.07;62.18;98231.59;5030401;28;20042;-74
2023/05/31 06:11:43;;;;;;;0.30;0.30;;;;;;;12.16;62.55;98234.16;5030729;28;20080;-74
2023/05/31 06:14:12;;;;;;;0.30;0.30;;;;;;;12.21;62.77;98237.13;5013049;28;20076;-73
2023/05/31 06:16:47;;;;;;;0.32;0.32;;;;;;;12.32;62.45;98232.09;5007371;28;20041;-73
2023/05/31 06:19:14;;;;;;;0.20;0.20;;;;;;;12.40;61.79;98234.66;5012662;28;20054;-74
2023/05/31 06:21:43;;;;;;;0.10;0.10;;;;;;;12.58;62.47;98236.03;5012870;28;20041;-74
2023/05/31 06:24:11;;;;;;;0.20;0.20;;;;;;;12.68;60.38;98234.69;5013188;28;20049;-73
2023/05/31 06:26:38;;;;;;;0.20;0.20;;;;;;;12.84;59.29;98231.78;5011385;28;20042;-74
2023/05/31 06:29:07;;;;;;;0.20;0.20;;;;;;;12.86;59.41;98232.41;5012718;28;20140;-73
2023/05/31 06:31:55;;;;;;;0.20;0.20;;;;;;;13.02;59.82;98228.63;5029630;28;20520;-74
2023/05/31 06:34:25;;;;;;;0.20;0.20;;;;;;;13.19;59.33;98221.97;5029447;28;20045;-73
2023/05/31 06:36:56;;;;;;;0.43;0.43;;;;;;;13.28;58.78;98225.34;5016252;28;20092;-73
2023/05/31 06:39:23;;;;;;;0.13;0.13;;;;;;;13.42;58.15;98231.59;5016336;28;20069;-73
2023/05/31 06:41:51;;;;;;;0.20;0.20;;;;;;;13.58;57.86;98228.63;5022045;28;20060;-73
2023/05/31 06:44:56;;;;;;;0.20;0.20;;;;;;;13.81;57.66;98218.38;5031456;28;20045;-73
2023/05/31 06:47:44;;;;;;;0.20;0.20;;;;;;;14.05;57.71;98216.22;5033308;28;20236;-73
2023/05/31 06:50:31;;;;;;;0.13;0.13;;;;;;;14.27;57.42;98205.16;5028149;28;20520;-73
2023/05/31 06:53:18;;;;;;;0.10;0.10;;;;;;;14.48;57.02;98203.34;5029169;28;20067;-74
2023/05/31 06:55:48;;;;;;;0.20;0.20;;;;;;;14.76;55.87;98204.00;5017225;28;20136;-73
2023/05/31 06:58:19;;;;;;;0.15;0.15;;;;;;;14.94;55.05;98206.09;5015831;28;20531;-74
2023/05/31 07:00:50;;;;;;;0.17;0.17;;;;;;;15.09;54.27;98206.69;5015706;28;20543;-73
2023/05/31 07:03:21;;;;;;;0.20;0.20;;;;;;;15.28;53.47;98205.00;5014702;28;20073;-74
2023/05/31 07:05:48;;;;;;;0.20;0.20;;;;;;;15.50;52.80;98198.34;5015716;28;20049;-74
2023/05/31 07:08:16;;;;;;;0.10;0.10;;;;;;;15.61;52.84;98200.41;5015515;28;20136;-74
2023/05/31 07:11:04;;;;;;;0.10;0.10;;;;;;;15.72;51.40;98201.63;5033236;28;20049;-74
2023/05/31 07:13:32;;;;;;;0.20;0.20;;;;;;;15.89;50.92;98201.97;5015994;28;20045;-74
2023/05/31 07:16:00;;;;;;;0.10;0.10;;;;;;;16.08;50.58;98198.38;5015797;28;20049;-74
2023/05/31 07:18:29;;;;;;;0.20;0.20;;;;;;;16.29;49.88;98194.53;5015510;28;20045;-74
2023/05/31 07:20:58;;;;;;;0.15;0.15;;;;;;;16.48;48.16;98196.28;5015182;28;20515;-73
2023/05/31 07:23:27;;;;;;;0.10;0.10;;;;;;;16.74;46.98;98193.41;5033030;28;20048;-74
2023/05/31 07:25:57;;;;;;;0.20;0.20;;;;;;;16.99;47.53;98188.03;5033510;28;20091;-73
2023/05/31 07:28:24;;;;;;;0.10;0.10;;;;;;;17.28;45.38;98186.53;5033362;28;20045;-73
2023/05/31 07:30:52;;;;;;;0.10;0.10;;;;;;;17.58;44.06;98183.91;5034430;28;20052;-74
2023/05/31 07:33:20;;;;;;;0.13;0.13;;;;;;;17.90;42.03;98180.03;5035123;28;20048;-74
2023/05/31 07:35:59;;;;;;;0.15;0.15;;;;;;;18.13;40.30;98183.91;5029617;28;20068;-74
2023/05/31 07:38:27;;;;;;;0.10;0.10;;;;;;;18.35;40.98;98182.38;5027664;28;20041;-74
2023/05/31 07:40:54;;;;;;;0.10;0.10;;;;;;;18.55;38.77;98179.38;5037461;28;20124;-74
2023/05/31 07:43:22;;;;;;;0.20;0.20;;;;;;;18.76;38.44;98169.91;5034277;28;20128;-74
2023/05/31 07:45:50;;;;;;;0.15;0.15;;;;;;;18.92;38.25;98167.34;5033856;28;20046;-74
2023/05/31 07:48:18;;;;;;;0.20;0.20;;;;;;;19.02;37.26;98164.06;5033353;28;20128;-74
2023/05/31 07:50:46;;;;;;;0.10;0.10;;;;;;;19.20;37.40;98158.56;5025977;28;20075;-74
2023/05/31 07:53:15;;;;;;;0.13;0.13;;;;;;;19.33;37.34;98161.00;5031248;28;20054;-74
2023/05/31 07:55:43;;;;;;;0.10;0.10;;;;;;;19.54;36.62;98156.06;5032422;28;20041;-74
2023/05/31 07:58:11;;;;;;;0.13;0.13;;;;;;;19.49;37.24;98151.38;5032261;28;20060;-74
2023/05/31 08:00:38;;;;;;;0.10;0.10;;;;;;;19.76;36.52;98148.94;5033655;28;20041;-74
2023/05/31 08:03:06;;;;;;;0.10;0.10;;;;;;;20.06;35.84;98162.28;5029548;28;20128;-74
2023/05/31 08:05:34;;;;;;;0.10;0.10;;;;;;;20.22;35.02;98155.28;5024604;28;20045;-74
2023/05/31 08:08:02;;;;;;;0.20;0.20;;;;;;;20.36;35.28;98162.06;5027549;28;20038;-74
2023/05/31 08:10:31;;;;;;;0.10;0.10;;;;;;;20.60;34.47;98154.63;5032729;28;20048;-74
2023/05/31 08:12:59;;;;;;;0.10;0.10;;;;;;;20.81;34.38;98151.19;5032611;28;20049;-74
2023/05/31 08:15:26;;;;;;;0.10;0.10;;;;;;;20.92;34.00;98147.59;5024165;28;20044;-74
2023/05/31 08:17:55;;;;;;;0.10;0.10;;;;;;;21.05;33.33;98155.41;5030369;28;20048;-74
2023/05/31 08:20:23;;;;;;;0.10;0.10;;;;;;;21.13;32.89;98143.28;5030588;28;20045;-74
2023/05/31 08:22:50;;;;;;;0.10;0.10;;;;;;;21.16;32.94;98138.19;5035307;28;20512;-75
2023/05/31 08:25:18;;;;;;;0.20;0.10;;;;;;;21.32;32.62;98133.81;5035159;28;20046;-75
2023/05/31 08:27:47;;;;;;;0.10;0.10;;;;;;;21.39;31.96;98139.06;5031990;28;20061;-73
2023/05/31 08:30:15;;;;;;;0.10;0.10;;;;;;;21.60;32.85;98141.00;5031518;28;20049;-73
2023/05/31 08:32:42;;;;;;;0.05;0.05;;;;;;;21.75;32.13;98130.31;5014402;28;20606;-73
2023/05/31 08:35:10;;;;;;;0.10;0.10;;;;;;;21.74;32.28;98141.44;5028337;28;20049;-73
2023/05/31 08:37:39;;;;;;;0.10;0.10;;;;;;;22.00;31.63;98131.75;5025367;28;20045;-74
2023/05/31 08:40:08;;;;;;;0.30;0.10;;;;;;;22.20;31.81;98131.97;5028144;28;20092;-74
2023/05/31 08:42:40;;;;;;;0.10;0.10;;;;;;;22.31;31.28;98128.28;5031664;28;20521;-73
2023/05/31 08:45:11;;;;;;;0.10;0.10;;;;;;;22.48;31.43;98128.16;5029514;28;20055;-75
2023/05/31 08:47:40;;;;;;;0.20;0.13;;;;;;;22.53;30.83;98120.84;5045433;23;20518;-72
2023/05/31 08:50:10;;;;;;;0.22;0.17;;;;;;;22.53;31.12;98126.28;5031152;28;20042;-72
2023/05/31 08:52:39;;;;;;;0.10;0.10;;;;;;;22.68;30.45;98120.16;5027210;28;20049;-72
2023/05/31 08:55:08;;;;;;;0.10;0.10;;;;;;;22.78;29.90;98124.91;5031001;28;20054;-70
2023/05/31 08:57:36;;;;;;;0.20;0.20;;;;;;;22.88;29.94;98128.53;5022082;28;20099;-69
2023/05/31 09:00:10;;;;;;;0.10;0.10;;;;;;;22.95;30.03;98120.94;5032289;28;20511;-70
2023/05/31 09:02:39;;;;;;;0.17;0.17;;;;;;;23.02;29.83;98124.28;5032303;28;20052;-70
2023/05/31 09:05:10;;;;;;;0.10;0.10;;;;;;;23.10;29.79;98117.53;5023304;28;20042;-72
2023/05/31 09:07:38;;;;;;;0.10;0.10;;;;;;;22.87;29.61;98107.81;5031144;28;20047;-69
2023/05/31 09:10:08;;;;;;;0.10;0.10;;;;;;;22.91;30.07;98124.47;5031186;28;20041;-72
2023/05/31 09:12:36;;;;;;;0.10;0.10;;;;;;;22.95;29.52;98118.22;5030909;28;20046;-70
2023/05/31 09:15:06;;;;;;;0.03;0.03;;;;;;;22.96;29.94;98114.44;5031072;28;20500;-71
2023/05/31 09:17:34;;;;;;;0.00;0.00;;;;;;;22.71;30.15;98111.50;5030991;28;20133;-70
2023/05/31 09:20:05;;;;;;;0.10;0.10;;;;;;;22.63;30.25;98114.69;5030789;28;20045;-70
2023/05/31 09:22:34;;;;;;;0.13;0.13;;;;;;;23.01;29.22;98113.66;5031169;28;20049;-70
2023/05/31 09:25:02;;;;;;;0.20;0.10;;;;;;;23.29;29.01;98117.91;5030795;28;20044;-70
2023/05/31 09:27:35;;;;;;;0.10;0.10;;;;;;;23.39;28.90;98109.78;5030957;28;20055;-71
2023/05/31 09:30:09;;;;;;;0.10;0.10;;;;;;;23.62;29.15;98103.94;5031242;28;20069;-69
2023/05/31 09:32:37;;;;;;;0.10;0.10;;;;;;;23.78;28.72;98100.19;5032583;28;20045;-69
2023/05/31 09:35:14;;;;;;;0.00;0.00;;;;;;;23.82;28.21;98089.56;5036337;28;20048;-69
2023/05/31 09:37:45;;;;;;;0.10;0.10;;;;;;;23.91;28.07;98098.88;5026542;28;20057;-69
2023/05/31 09:40:14;;;;;;;0.10;0.10;;;;;;;23.91;27.62;98090.69;5032158;28;20611;-70
2023/05/31 09:42:48;;;;;;;0.10;0.10;;;;;;;23.91;28.05;98087.13;5026028;28;20124;-70
2023/05/31 09:45:17;;;;;;;0.10;0.10;;;;;;;23.86;28.24;98070.78;5030654;28;20373;-70
2023/05/31 09:47:44;;;;;;;0.10;0.10;;;;;;;24.00;27.88;98077.34;5031102;28;20381;-70
2023/05/31 09:50:16;;;;;;;0.10;0.10;;;;;;;24.16;27.59;98081.75;5030511;28;20300;-70
2023/05/31 09:52:44;;;;;;;0.10;0.10;;;;;;;24.35;26.83;98082.91;5031993;28;20045;-70
2023/05/31 09:55:12;;;;;;;0.10;0.10;;;;;;;24.41;27.00;98076.34;5030663;28;20091;-71
2023/05/31 09:57:41;;;;;;;0.10;0.10;;;;;;;24.41;27.09;98079.09;5013172;28;20045;-70
2023/05/31 10:00:15;;;;;;;0.10;0.10;;;;;;;24.57;27.26;98076.38;5030713;28;20044;-70
2023/05/31 10:02:44;;;;;;;0.00;0.00;;;;;;;24.67;26.44;98079.09;5030873;28;20543;-73
2023/05/31 10:05:13;;;;;;;0.00;0.00;;;;;;;24.59;26.46;98077.75;5030384;28;20081;-70
2023/05/31 10:07:42;;;;;;;0.00;0.00;;;;;;;24.74;26.56;98085.91;5030659;28;20355;-70
2023/05/31 10:10:11;;;;;;;0.08;0.08;;;;;;;24.85;25.76;98073.91;5024248;28;20433;-69
2023/05/31 10:12:42;;;;;;;0.20;0.10;;;;;;;24.90;25.80;98073.09;5034754;28;20041;-70
2023/05/31 10:15:13;;;;;;;0.10;0.10;;;;;;;24.98;25.85;98071.72;5034134;28;20436;-70
2023/05/31 10:17:47;;;;;;;0.10;0.10;;;;;;;24.97;25.83;98061.91;5034487;28;20048;-71
2023/05/31 10:20:17;;;;;;;0.10;0.10;;;;;;;25.01;25.72;98068.47;5034397;28;20420;-71
2023/05/31 10:22:45;;;;;;;0.00;0.00;;;;;;;24.91;26.44;98061.06;5034104;28;20056;-70
2023/05/31 10:25:20;;;;;;;0.10;0.10;;;;;;;25.12;26.22;98061.88;5027392;28;20053;-70
2023/05/31 10:27:51;;;;;;;0.00;0.00;;;;;;;25.19;26.02;98056.94;5016046;28;20053;-71
2023/05/31 10:30:25;;;;;;;0.00;0.00;;;;;;;24.97;25.40;98062.72;5016243;28;20041;-71
2023/05/31 10:32:56;;;;;;;0.17;0.05;;;;;;;24.61;25.75;98059.16;5011848;28;20629;-71
2023/05/31 10:35:25;;;;;;;0.03;0.03;;;;;;;24.77;26.45;98058.06;5033952;28;20452;-70
2023/05/31 10:37:54;;;;;;;0.10;0.10;;;;;;;24.45;27.15;98052.06;5033946;28;20077;-70
2023/05/31 10:40:26;;;;;;;0.10;0.10;;;;;;;24.98;25.71;98036.22;5034002;28;20462;-70
2023/05/31 10:42:57;;;;;;;0.20;0.10;;;;;;;25.30;25.86;98044.88;5030415;28;20389;-71
2023/05/31 10:45:27;;;;;;;0.17;0.17;;;;;;;25.48;26.27;98041.53;5033595;28;20041;-70
2023/05/31 10:47:59;;;;;;;0.10;0.10;;;;;;;25.69;25.75;98039.53;5033827;28;20519;-70
2023/05/31 10:50:28;;;;;;;0.03;0.00;;;;;;;25.72;25.87;98029.97;5033751;28;20033;-71
2023/05/31 10:53:09;;;;;;;0.10;0.10;;;;;;;25.56;25.79;98027.25;5033847;28;20132;-71
2023/05/31 10:55:41;;;;;;;0.03;0.03;;;;;;;25.83;26.44;98031.53;5026747;28;20037;-71
2023/05/31 10:58:25;;;;;;;0.10;0.10;;;;;;;25.68;26.08;98026.16;5033246;28;20087;-70
2023/05/31 11:00:53;;;;;;;0.10;0.00;;;;;;;25.67;26.44;98025.31;5033590;28;20047;-70
2023/05/31 11:03:22;;;;;;;0.00;0.00;;;;;;;25.70;26.19;98027.50;5033541;28;20132;-71
2023/05/31 11:06:00;;;;;;;0.08;0.08;;;;;;;25.88;26.30;98023.28;5033530;28;20056;-71
2023/05/31 11:08:28;;;;;;;0.00;0.00;;;;;;;25.88;26.13;98024.13;5025281;28;20038;-71
2023/05/31 11:11:26;;;;;;;0.00;0.00;;;;;;;26.05;26.16;98017.47;5033611;28;20081;-70
2023/05/31 11:13:58;;;;;;;0.10;0.00;;;;;;;26.32;25.67;98012.34;5028437;28;20062;-70
2023/05/31 11:16:26;;;;;;;0.00;0.00;;;;;;;26.29;25.84;98010.19;5033094;28;20041;-71
2023/05/31 11:19:04;;;;;;;0.00;0.00;;;;;;;26.15;25.52;98012.72;5034471;28;20044;-69
2023/05/31 11:21:51;;;;;;;0.00;0.00;;;;;;;26.20;26.10;98012.69;5033866;28;20064;-70
2023/05/31 11:24:28;;;;;;;0.00;0.00;;;;;;;26.29;25.84;98016.47;5036683;28;20124;-70
2023/05/31 11:26:58;;;;;;;0.10;0.10;;;;;;;26.43;25.98;98018.56;5024362;28;20500;-70
2023/05/31 11:29:25;;;;;;;0.00;0.00;;;;;;;26.21;26.59;98022.53;5034059;28;20037;-71
2023/05/31 11:31:58;;;;;;;0.10;0.10;;;;;;;26.42;26.93;98023.22;5033720;28;20045;-71
2023/05/31 11:34:28;;;;;;;0.00;0.00;;;;;;;26.59;26.28;98023.59;5015680;28;20060;-70
2023/05/31 11:36:59;;;;;;;0.00;0.00;;;;;;;26.68;26.04;98015.63;5033135;28;20052;-70
2023/05/31 11:39:27;;;;;;;0.10;0.10;;;;;;;26.81;26.61;98008.63;5015310;28;20064;-70
2023/05/31 11:41:55;;;;;;;0.00;0.00;;;;;;;26.89;25.94;98010.75;5033307;28;20065;-70
2023/05/31 11:44:28;;;;;;;0.10;0.10;;;;;;;26.90;25.67;98006.88;5033251;28;20049;-70
2023/05/31 11:47:00;;;;;;;0.00;0.00;;;;;;;26.60;26.32;98008.81;5033787;28;20356;-71
2023/05/31 11:49:28;;;;;;;0.00;0.00;;;;;;;26.77;25.59;98013.06;5024409;28;20061;-71